Time;durP1;ratioP1;P1;durP2;ratioP2;P2;SDS_P1;SDS_P2;PMS_P1;PMS_P2;Temp;Humidity;BMP_temperature;BMP_pressure;BME280_temperature;BME280_humidity;BME280_pressure;Samples;Min_cycle;Max_cycle;Signal;HPM_P1;HPM_P2
2022/09/24 00:01:11;;;;;;;12.70;8.27;;;;;;;;;;5019759;28;20046;-69
2022/09/24 00:03:37;;;;;;;9.93;8.13;;;;;;;;;;5022333;28;20482;-69
2022/09/24 00:06:04;;;;;;;9.68;7.60;;;;;;;;;;5019572;28;20472;-70
2022/09/24 00:08:31;;;;;;;11.93;8.18;;;;;;;;;;5020038;28;20702;-69
2022/09/24 00:11:00;;;;;;;9.85;8.20;;;;;;;;;;5021573;28;20048;-70
2022/09/24 00:13:26;;;;;;;13.88;9.32;;;;;;;;;;5031770;28;20037;-70
2022/09/24 00:15:52;;;;;;;9.77;8.02;;;;;;;;;;5032287;28;20512;-70
2022/09/24 00:18:17;;;;;;;10.02;8.40;;;;;;;;;;5024647;28;20057;-70
2022/09/24 00:20:43;;;;;;;12.45;9.55;;;;;;;;;;5029388;28;20044;-70
2022/09/24 00:23:10;;;;;;;11.45;8.45;;;;;;;;;;5023575;28;20132;-69
2022/09/24 00:28:29;;;;;;;14.23;8.70;;;;;;;;;;5034766;28;20046;-70
2022/09/24 00:30:59;;;;;;;10.60;8.25;;;;;;;;;;5032074;28;20068;-70
2022/09/24 00:33:27;;;;;;;10.57;8.45;;;;;;;;;;5031276;28;20079;-69
2022/09/24 00:35:56;;;;;;;19.05;9.27;;;;;;;;;;5022799;28;20771;-70
2022/09/24 00:38:23;;;;;;;10.40;8.85;;;;;;;;;;5022940;28;20050;-70
2022/09/24 00:40:48;;;;;;;12.02;8.70;;;;;;;;;;5022803;28;20063;-70
2022/09/24 00:43:33;;;;;;;10.30;8.32;;;;;;;;;;5023114;28;20045;-70
2022/09/24 00:46:37;;;;;;;13.30;8.95;;;;;;;;;;5023703;28;20512;-70
2022/09/24 00:49:15;;;;;;;12.10;8.30;;;;;;;;;;5022826;28;20490;-69
2022/09/24 00:51:42;;;;;;;13.85;8.27;;;;;;;;;;5022388;28;20072;-70
2022/09/24 00:54:13;;;;;;;10.30;7.70;;;;;;;;;;5022638;28;20043;-70
2022/09/24 00:56:42;;;;;;;12.20;8.05;;;;;;;;;;5024931;28;20095;-70
2022/09/24 00:59:10;;;;;;;11.45;8.40;;;;;;;;;;5022999;28;20086;-70
2022/09/24 01:01:36;;;;;;;15.30;8.07;;;;;;;;;;5022249;28;20111;-70
2022/09/24 01:04:03;;;;;;;10.52;8.20;;;;;;;;;;5024568;28;20457;-70
2022/09/24 01:06:29;;;;;;;10.82;8.07;;;;;;;;;;5029228;28;20123;-70
2022/09/24 01:08:57;;;;;;;9.77;7.60;;;;;;;;;;5022048;28;20061;-70
2022/09/24 01:11:38;;;;;;;11.27;7.97;;;;;;;;;;5024109;28;20145;-69
2022/09/24 01:14:17;;;;;;;14.43;8.18;;;;;;;;;;5035864;28;20152;-70
2022/09/24 01:16:48;;;;;;;9.45;7.38;;;;;;;;;;5022886;28;20048;-70
2022/09/24 01:19:29;;;;;;;11.73;7.50;;;;;;;;;;5020690;28;20041;-69
2022/09/24 01:22:19;;;;;;;9.77;7.90;;;;;;;;;;5020140;28;20045;-70
2022/09/24 01:25:09;;;;;;;13.23;8.45;;;;;;;;;;5033856;28;20141;-70
2022/09/24 01:28:18;;;;;;;11.35;8.32;;;;;;;;;;5022241;28;20053;-70
2022/09/24 01:30:48;;;;;;;9.90;8.25;;;;;;;;;;5032921;28;20649;-70
2022/09/24 01:33:21;;;;;;;10.25;8.27;;;;;;;;;;5021150;28;20852;-70
2022/09/24 01:35:51;;;;;;;9.55;8.13;;;;;;;;;;5021662;28;20812;-69
2022/09/24 01:38:24;;;;;;;15.52;8.57;;;;;;;;;;5021440;28;20068;-70
2022/09/24 01:40:50;;;;;;;16.75;8.20;;;;;;;;;;5021771;28;20045;-70
2022/09/24 01:43:19;;;;;;;16.60;9.98;;;;;;;;;;5021856;28;20053;-69
2022/09/24 01:45:45;;;;;;;13.68;8.88;;;;;;;;;;5021534;28;20053;-69
2022/09/24 01:48:11;;;;;;;11.57;9.88;;;;;;;;;;5021708;28;20049;-70
2022/09/24 01:50:45;;;;;;;14.13;9.95;;;;;;;;;;5025781;28;20057;-69
2022/09/24 01:53:18;;;;;;;15.45;10.05;;;;;;;;;;5022449;28;20045;-70
2022/09/24 01:55:51;;;;;;;11.27;9.40;;;;;;;;;;5017910;28;20076;-70
2022/09/24 01:58:31;;;;;;;15.05;9.43;;;;;;;;;;5021001;28;20052;-69
2022/09/24 02:01:04;;;;;;;13.60;10.52;;;;;;;;;;5021284;28;20049;-70
2022/09/24 02:03:35;;;;;;;11.23;8.93;;;;;;;;;;5022027;28;20045;-69
2022/09/24 02:06:11;;;;;;;15.25;9.63;;;;;;;;;;5020855;28;20049;-70
2022/09/24 02:08:39;;;;;;;11.23;8.95;;;;;;;;;;5021583;28;20633;-69
2022/09/24 02:11:13;;;;;;;12.65;9.23;;;;;;;;;;5023360;28;20056;-69
2022/09/24 02:13:43;;;;;;;12.23;9.55;;;;;;;;;;5023950;28;20132;-69
2022/09/24 02:16:15;;;;;;;16.80;9.38;;;;;;;;;;5019093;28;20053;-70
2022/09/24 02:18:46;;;;;;;17.30;10.87;;;;;;;;;;5021525;28;20053;-69
2022/09/24 02:21:14;;;;;;;16.52;11.68;;;;;;;;;;5025819;28;20049;-69
2022/09/24 02:23:45;;;;;;;16.50;11.93;;;;;;;;;;5021617;28;20045;-69
2022/09/24 02:26:11;;;;;;;17.05;10.80;;;;;;;;;;5020991;28;20209;-69
2022/09/24 02:28:37;;;;;;;15.98;11.32;;;;;;;;;;5020182;28;20137;-69
2022/09/24 02:31:19;;;;;;;17.85;11.32;;;;;;;;;;5020926;28;20436;-69
2022/09/24 02:36:53;;;;;;;12.10;9.77;;;;;;;;;;5026608;28;19927;-70
2022/09/24 02:39:19;;;;;;;12.48;9.88;;;;;;;;;;5019734;28;20481;-69
2022/09/24 02:41:47;;;;;;;12.63;9.55;;;;;;;;;;5022793;28;20049;-68
2022/09/24 02:44:16;;;;;;;12.93;9.32;;;;;;;;;;5026210;28;20037;-68
2022/09/24 02:46:42;;;;;;;15.35;9.88;;;;;;;;;;5023077;28;20107;-68
2022/09/24 02:49:09;;;;;;;14.93;9.73;;;;;;;;;;5020826;28;20045;-68
2022/09/24 02:51:35;;;;;;;12.68;9.52;;;;;;;;;;5019925;28;20045;-68
2022/09/24 02:54:00;;;;;;;12.02;9.48;;;;;;;;;;5021444;28;20389;-67
2022/09/24 02:56:27;;;;;;;15.75;12.10;;;;;;;;;;5025806;28;20521;-68
2022/09/24 02:58:53;;;;;;;16.08;12.38;;;;;;;;;;5025686;28;20465;-67
2022/09/24 03:01:18;;;;;;;14.65;11.32;;;;;;;;;;5024472;28;20489;-68
2022/09/24 03:03:44;;;;;;;15.80;11.20;;;;;;;;;;5028093;28;20053;-68
2022/09/24 03:06:11;;;;;;;15.85;11.20;;;;;;;;;;5020377;28;20045;-68
2022/09/24 03:08:36;;;;;;;18.38;10.60;;;;;;;;;;5027657;28;20106;-69
2022/09/24 03:11:03;;;;;;;17.92;11.82;;;;;;;;;;5024939;28;20045;-68
2022/09/24 03:13:28;;;;;;;18.35;12.27;;;;;;;;;;5027421;28;20341;-68
2022/09/24 03:15:53;;;;;;;17.83;11.68;;;;;;;;;;5020991;28;20252;-67
2022/09/24 03:18:19;;;;;;;12.07;10.15;;;;;;;;;;5021810;28;20056;-67
2022/09/24 03:21:04;;;;;;;12.73;10.10;;;;;;;;;;5025285;28;20139;-66
2022/09/24 03:23:29;;;;;;;15.32;9.82;;;;;;;;;;5023118;28;20046;-68
2022/09/24 03:25:55;;;;;;;11.85;9.57;;;;;;;;;;5025559;28;20047;-67
2022/09/24 03:28:21;;;;;;;12.48;10.02;;;;;;;;;;5024685;28;20049;-68
2022/09/24 03:30:59;;;;;;;12.90;10.68;;;;;;;;;;5028788;28;20053;-67
2022/09/24 03:33:45;;;;;;;13.18;10.18;;;;;;;;;;5021909;28;20137;-67
2022/09/24 03:36:15;;;;;;;14.60;10.38;;;;;;;;;;5022986;28;20493;-68
2022/09/24 03:38:42;;;;;;;14.50;11.40;;;;;;;;;;5026872;28;20041;-67
2022/09/24 03:41:08;;;;;;;13.95;10.85;;;;;;;;;;5025647;28;20048;-67
2022/09/24 03:43:35;;;;;;;22.02;11.88;;;;;;;;;;5024726;28;20045;-69
2022/09/24 03:46:02;;;;;;;14.63;11.68;;;;;;;;;;5024820;28;20045;-69
2022/09/24 03:48:29;;;;;;;16.77;10.80;;;;;;;;;;5025035;28;20563;-69
2022/09/24 03:50:55;;;;;;;16.65;10.52;;;;;;;;;;5028021;28;20187;-69
2022/09/24 03:53:21;;;;;;;13.55;10.43;;;;;;;;;;5027979;28;20036;-70
2022/09/24 03:55:54;;;;;;;15.60;10.75;;;;;;;;;;5024274;28;20127;-69
2022/09/24 03:58:20;;;;;;;19.98;9.93;;;;;;;;;;5019318;28;20087;-69
2022/09/24 04:00:45;;;;;;;11.57;9.38;;;;;;;;;;5022757;28;20140;-69
2022/09/24 04:03:10;;;;;;;12.05;10.07;;;;;;;;;;5028744;28;20139;-69
2022/09/24 04:05:36;;;;;;;14.45;9.88;;;;;;;;;;5023943;28;20092;-69
2022/09/24 04:08:04;;;;;;;12.80;9.27;;;;;;;;;;5022269;28;20099;-68
2022/09/24 04:10:29;;;;;;;16.70;9.90;;;;;;;;;;5028069;28;20060;-68
2022/09/24 04:12:55;;;;;;;13.23;9.35;;;;;;;;;;5032907;28;20049;-69
2022/09/24 04:15:22;;;;;;;14.25;9.82;;;;;;;;;;5026516;28;20043;-68
2022/09/24 04:17:51;;;;;;;14.65;9.13;;;;;;;;;;5028855;28;20045;-69
2022/09/24 04:20:21;;;;;;;11.73;9.13;;;;;;;;;;5032563;28;20052;-69
2022/09/24 04:22:46;;;;;;;12.45;8.90;;;;;;;;;;5034506;28;20700;-69
2022/09/24 04:25:12;;;;;;;11.85;8.77;;;;;;;;;;5030410;28;20163;-70
2022/09/24 04:27:38;;;;;;;11.55;9.23;;;;;;;;;;5026922;28;20045;-69
2022/09/24 04:30:04;;;;;;;14.23;8.85;;;;;;;;;;5025657;28;20053;-69
2022/09/24 04:32:29;;;;;;;11.63;8.82;;;;;;;;;;5028111;28;20093;-69
2022/09/24 04:34:54;;;;;;;19.00;9.57;;;;;;;;;;5023857;28;20049;-69
2022/09/24 04:37:20;;;;;;;10.90;8.43;;;;;;;;;;5030296;28;20183;-70
2022/09/24 04:39:45;;;;;;;12.25;9.10;;;;;;;;;;5023124;28;20518;-69
2022/09/24 04:42:16;;;;;;;10.65;8.48;;;;;;;;;;5026588;28;20064;-70
2022/09/24 04:44:43;;;;;;;11.30;8.57;;;;;;;;;;5030719;28;20152;-70
2022/09/24 04:47:10;;;;;;;10.13;8.35;;;;;;;;;;5030044;28;20041;-70
2022/09/24 04:49:35;;;;;;;12.55;9.00;;;;;;;;;;5027262;28;20049;-69
2022/09/24 04:52:01;;;;;;;12.13;8.82;;;;;;;;;;5029366;28;20045;-69
2022/09/24 04:54:28;;;;;;;9.52;8.50;;;;;;;;;;5024891;28;20060;-70
2022/09/24 04:56:53;;;;;;;15.50;8.95;;;;;;;;;;5026318;28;20930;-69
2022/09/24 04:59:19;;;;;;;11.10;9.52;;;;;;;;;;5026035;28;20049;-69
2022/09/24 05:01:45;;;;;;;11.80;8.55;;;;;;;;;;5031306;28;20040;-68
2022/09/24 05:04:10;;;;;;;10.57;8.48;;;;;;;;;;5035451;28;20048;-68
2022/09/24 05:06:35;;;;;;;12.40;8.15;;;;;;;;;;5033146;28;20037;-69
2022/09/24 05:09:01;;;;;;;9.07;7.78;;;;;;;;;;5032306;28;20498;-69
2022/09/24 05:11:26;;;;;;;11.43;9.70;;;;;;;;;;5022445;28;20469;-69
2022/09/24 05:13:52;;;;;;;12.18;8.73;;;;;;;;;;5020793;28;20081;-69
2022/09/24 05:16:17;;;;;;;11.55;8.75;;;;;;;;;;5021429;28;20055;-69
2022/09/24 05:18:43;;;;;;;12.32;8.43;;;;;;;;;;5027530;28;20045;-69
2022/09/24 05:21:08;;;;;;;11.60;8.32;;;;;;;;;;5027611;28;20296;-69
2022/09/24 05:23:33;;;;;;;12.75;8.95;;;;;;;;;;5031244;28;20053;-69
2022/09/24 05:28:42;;;;;;;11.02;8.82;;;;;;;;;;5022203;28;20045;-69
2022/09/24 05:31:09;;;;;;;11.48;8.70;;;;;;;;;;5024885;28;20052;-70
2022/09/24 05:33:35;;;;;;;9.90;8.25;;;;;;;;;;5025958;28;20067;-70
2022/09/24 05:36:01;;;;;;;12.07;8.07;;;;;;;;;;5020002;28;20118;-69
2022/09/24 05:38:28;;;;;;;13.55;8.45;;;;;;;;;;5023295;28;20187;-69
2022/09/24 05:40:54;;;;;;;10.70;8.48;;;;;;;;;;5021014;28;20049;-69
2022/09/24 05:43:20;;;;;;;9.95;8.45;;;;;;;;;;5021013;28;20076;-69
2022/09/24 05:45:45;;;;;;;9.07;7.80;;;;;;;;;;5022754;28;20160;-69
2022/09/24 05:48:11;;;;;;;9.93;8.43;;;;;;;;;;5036314;28;20126;-69
2022/09/24 05:50:37;;;;;;;12.27;7.95;;;;;;;;;;5029736;28;20821;-69
2022/09/24 05:53:04;;;;;;;10.70;7.35;;;;;;;;;;5025120;28;20068;-69
2022/09/24 05:55:30;;;;;;;11.43;7.68;;;;;;;;;;5020260;28;20487;-70
2022/09/24 05:58:10;;;;;;;13.77;8.35;;;;;;;;;;5021157;28;20894;-69
2022/09/24 06:00:36;;;;;;;8.15;6.68;;;;;;;;;;5017832;28;20076;-68
2022/09/24 06:03:09;;;;;;;9.45;5.90;;;;;;;;;;5023226;28;20045;-71
2022/09/24 06:05:34;;;;;;;6.10;5.50;;;;;;;;;;5019421;28;20041;-68
2022/09/24 06:08:01;;;;;;;9.27;5.25;;;;;;;;;;5016171;28;20049;-70
2022/09/24 06:10:26;;;;;;;6.05;5.10;;;;;;;;;;5020859;28;20056;-69
2022/09/24 06:12:52;;;;;;;7.80;5.20;;;;;;;;;;5020630;28;20053;-68
2022/09/24 06:15:19;;;;;;;9.20;5.38;;;;;;;;;;5020796;28;20161;-71
2022/09/24 06:17:45;;;;;;;8.88;5.45;;;;;;;;;;5025114;28;20052;-70
2022/09/24 06:20:10;;;;;;;8.55;5.50;;;;;;;;;;5023074;28;20041;-71
2022/09/24 06:22:36;;;;;;;6.15;5.47;;;;;;;;;;5029643;28;20064;-71
2022/09/24 06:25:01;;;;;;;5.78;5.15;;;;;;;;;;5025110;28;20041;-70
2022/09/24 06:27:27;;;;;;;7.85;5.07;;;;;;;;;;5020225;28;20076;-71
2022/09/24 06:29:52;;;;;;;7.22;4.93;;;;;;;;;;5022271;28;20049;-71
2022/09/24 06:32:18;;;;;;;6.03;5.28;;;;;;;;;;5019940;28;20072;-70
2022/09/24 06:34:44;;;;;;;9.85;5.68;;;;;;;;;;5019690;28;20049;-70
2022/09/24 06:37:09;;;;;;;9.30;6.32;;;;;;;;;;5016649;28;20045;-70
2022/09/24 06:39:35;;;;;;;6.90;5.60;;;;;;;;;;5017690;28;20065;-70
2022/09/24 06:42:00;;;;;;;7.82;5.90;;;;;;;;;;5017850;28;20045;-71
2022/09/24 06:44:33;;;;;;;;;;;;;;;;;;5034829;28;20045;-70
2022/09/24 06:47:00;;;;;;;8.23;5.90;;;;;;;;;;5019435;28;19924;-70
2022/09/24 06:49:25;;;;;;;9.30;5.78;;;;;;;;;;5019119;28;20049;-70
2022/09/24 06:51:53;;;;;;;9.35;6.20;;;;;;;;;;5018074;28;20543;-71
2022/09/24 06:54:19;;;;;;;7.57;5.80;;;;;;;;;;5018246;28;20059;-70
2022/09/24 06:56:44;;;;;;;7.47;5.18;;;;;;;;;;5019277;28;20049;-71
2022/09/24 06:59:10;;;;;;;6.88;5.38;;;;;;;;;;5019205;28;20061;-70
2022/09/24 07:01:35;;;;;;;7.43;5.75;;;;;;;;;;5018494;28;20053;-70
2022/09/24 07:04:01;;;;;;;5.50;4.95;;;;;;;;;;5022147;28;20430;-70
2022/09/24 07:07:28;;;;;;;8.07;5.20;;;;;;;;;;5025463;28;20059;-70
2022/09/24 07:09:11;;;;;;;8.65;4.95;;;;;;;;;;5021337;28;20037;-70
2022/09/24 07:11:37;;;;;;;6.82;5.28;;;;;;;;;;5030012;28;20447;-71
2022/09/24 07:14:02;;;;;;;7.38;4.85;;;;;;;;;;5018102;28;20052;-70
2022/09/24 07:16:27;;;;;;;6.03;4.85;;;;;;;;;;5018983;28;20387;-70
2022/09/24 07:18:53;;;;;;;9.82;5.45;;;;;;;;;;5024234;28;20072;-70
2022/09/24 07:21:18;;;;;;;5.00;4.50;;;;;;;;;;5017773;28;20486;-70
2022/09/24 07:23:44;;;;;;;7.82;5.10;;;;;;;;;;5023291;28;20052;-70
2022/09/24 07:26:09;;;;;;;5.68;5.18;;;;;;;;;;5016775;28;20214;-70
2022/09/24 07:28:34;;;;;;;7.32;5.07;;;;;;;;;;5019000;28;20053;-70
2022/09/24 07:31:00;;;;;;;5.72;4.97;;;;;;;;;;5025701;28;20140;-71
2022/09/24 07:33:26;;;;;;;7.45;4.60;;;;;;;;;;5020213;28;20049;-71
2022/09/24 07:35:51;;;;;;;6.28;4.88;;;;;;;;;;5021086;28;20099;-70
2022/09/24 07:38:17;;;;;;;6.53;4.72;;;;;;;;;;5019142;28;20041;-70
2022/09/24 07:40:43;;;;;;;7.88;4.80;;;;;;;;;;5023165;28;20498;-70
2022/09/24 07:43:12;;;;;;;5.57;4.35;;;;;;;;;;5022115;28;20120;-71
2022/09/24 07:45:38;;;;;;;14.02;5.00;;;;;;;;;;5029580;28;20073;-70
2022/09/24 07:48:04;;;;;;;7.95;4.78;;;;;;;;;;5022622;28;20068;-70
2022/09/24 07:50:33;;;;;;;6.78;4.93;;;;;;;;;;5025836;28;20454;-70
2022/09/24 07:52:59;;;;;;;7.30;4.88;;;;;;;;;;5029507;28;20509;-69
2022/09/24 07:55:25;;;;;;;5.28;4.60;;;;;;;;;;5034997;28;20044;-70
2022/09/24 07:57:53;;;;;;;7.53;5.35;;;;;;;;;;5028461;28;20056;-69
2022/09/24 08:00:20;;;;;;;7.72;5.10;;;;;;;;;;5024667;28;20064;-69
2022/09/24 08:02:46;;;;;;;8.18;5.15;;;;;;;;;;5022300;28;20466;-70
2022/09/24 08:05:14;;;;;;;5.88;4.63;;;;;;;;;;5027884;28;20037;-72
2022/09/24 08:07:40;;;;;;;6.45;4.25;;;;;;;;;;5030306;28;20087;-70
2022/09/24 08:10:06;;;;;;;12.95;4.85;;;;;;;;;;5031198;28;20397;-70
2022/09/24 08:12:31;;;;;;;8.13;4.68;;;;;;;;;;5021426;28;20064;-71
2022/09/24 08:14:56;;;;;;;10.55;5.00;;;;;;;;;;5024067;28;20048;-70
2022/09/24 08:17:22;;;;;;;8.93;5.15;;;;;;;;;;5030199;28;20045;-69
2022/09/24 08:19:47;;;;;;;12.93;4.90;;;;;;;;;;5030005;28;20057;-68
2022/09/24 08:22:13;;;;;;;7.43;4.80;;;;;;;;;;5033501;28;20037;-70
2022/09/24 08:24:39;;;;;;;5.72;5.10;;;;;;;;;;5037335;28;20057;-71
2022/09/24 08:27:05;;;;;;;6.97;5.20;;;;;;;;;;5029404;28;20049;-71
2022/09/24 08:29:30;;;;;;;13.07;4.85;;;;;;;;;;5025909;28;20052;-72
2022/09/24 08:31:56;;;;;;;5.68;4.80;;;;;;;;;;5020091;28;20120;-70
2022/09/24 08:34:21;;;;;;;10.63;4.80;;;;;;;;;;5025460;28;20398;-71
2022/09/24 08:36:47;;;;;;;7.95;5.60;;;;;;;;;;5029317;28;20050;-70
2022/09/24 08:39:24;;;;;;;8.15;4.97;;;;;;;;;;5042950;28;20490;-70
2022/09/24 08:42:11;;;;;;;11.63;5.20;;;;;;;;;;5023845;28;20041;-70
2022/09/24 08:47:44;;;;;;;7.22;4.10;;;;;;;;;;5024224;28;20128;-69
2022/09/24 08:50:30;;;;;;;8.75;4.30;;;;;;;;;;5022424;28;20091;-70
2022/09/24 08:53:43;;;;;;;7.93;4.68;;;;;;;;;;5021292;28;20045;-70
2022/09/24 08:56:10;;;;;;;7.32;4.38;;;;;;;;;;5027825;28;20052;-71
2022/09/24 08:58:39;;;;;;;15.93;5.93;;;;;;;;;;5034248;28;20446;-69
2022/09/24 09:01:36;;;;;;;6.60;5.07;;;;;;;;;;5026958;28;20053;-69
2022/09/24 09:04:16;;;;;;;5.57;4.32;;;;;;;;;;5038755;28;20517;-69
2022/09/24 09:07:08;;;;;;;5.28;4.78;;;;;;;;;;5034919;28;20068;-69
2022/09/24 09:09:33;;;;;;;8.48;4.90;;;;;;;;;;5024413;28;20042;-71
2022/09/24 09:12:03;;;;;;;8.20;5.38;;;;;;;;;;5030629;28;20048;-71
2022/09/24 09:14:44;;;;;;;8.32;5.05;;;;;;;;;;5029763;28;20853;-70
2022/09/24 09:17:22;;;;;;;9.10;5.38;;;;;;;;;;5023311;28;20061;-69
2022/09/24 09:19:56;;;;;;;7.22;5.10;;;;;;;;;;5019928;28;20115;-70
2022/09/24 09:22:26;;;;;;;6.15;3.55;;;;;;;;;;5025418;28;20056;-70
2022/09/24 09:24:53;;;;;;;8.32;4.55;;;;;;;;;;5025380;28;20056;-70
2022/09/24 09:27:20;;;;;;;4.20;3.17;;;;;;;;;;5031243;28;20049;-71
2022/09/24 09:29:56;;;;;;;8.05;2.85;;;;;;;;;;5031361;28;20052;-69
2022/09/24 09:32:48;;;;;;;3.83;2.75;;;;;;;;;;5030064;28;20053;-71
2022/09/24 09:35:20;;;;;;;7.10;2.63;;;;;;;;;;5035143;28;20045;-69
2022/09/24 09:38:16;;;;;;;;;;;;;;;;;;5030580;28;20060;-73
2022/09/24 09:40:49;;;;;;;4.43;2.65;;;;;;;;;;5036176;28;19928;-71
2022/09/24 09:43:14;;;;;;;4.28;2.80;;;;;;;;;;5018260;28;20041;-71
2022/09/24 09:46:08;;;;;;;2.97;2.50;;;;;;;;;;5036325;28;20041;-70
2022/09/24 09:48:55;;;;;;;4.97;3.72;;;;;;;;;;5034731;28;20049;-69
2022/09/24 09:51:24;;;;;;;3.55;2.97;;;;;;;;;;5021369;28;20049;-69
2022/09/24 09:53:58;;;;;;;8.07;3.30;;;;;;;;;;5021340;28;20107;-70
2022/09/24 09:56:35;;;;;;;8.38;3.70;;;;;;;;;;5021519;28;20112;-72
2022/09/24 09:59:20;;;;;;;7.72;3.97;;;;;;;;;;5021850;28;20083;-70
2022/09/24 10:01:49;;;;;;;4.25;3.25;;;;;;;;;;5023827;28;20483;-72
2022/09/24 10:04:24;;;;;;;4.25;3.85;;;;;;;;;;5019253;28;20043;-69
2022/09/24 10:06:50;;;;;;;3.38;3.03;;;;;;;;;;5025201;28;20103;-72
2022/09/24 10:09:20;;;;;;;6.85;3.85;;;;;;;;;;5019607;28;20560;-70
2022/09/24 10:11:46;;;;;;;5.63;3.63;;;;;;;;;;5027986;28;20148;-73
2022/09/24 10:14:15;;;;;;;7.95;4.60;;;;;;;;;;5021292;28;20492;-71
2022/09/24 10:16:44;;;;;;;5.35;3.65;;;;;;;;;;5023602;28;20045;-70
2022/09/24 10:19:24;;;;;;;4.38;3.55;;;;;;;;;;5021227;28;20091;-72
2022/09/24 10:21:52;;;;;;;5.35;3.45;;;;;;;;;;5020826;28;20053;-73
2022/09/24 10:24:24;;;;;;;8.23;3.45;;;;;;;;;;5020458;28;20045;-70
2022/09/24 10:26:50;;;;;;;4.55;2.95;;;;;;;;;;5022880;28;20136;-70
2022/09/24 10:32:16;;;;;;;3.67;2.92;;;;;;;;;;5023398;28;20049;-73
2022/09/24 10:34:41;;;;;;;4.47;3.20;;;;;;;;;;5021090;28;20567;-72
2022/09/24 10:37:15;;;;;;;3.10;2.80;;;;;;;;;;5022330;28;20057;-70
2022/09/24 10:39:41;;;;;;;2.90;2.20;;;;;;;;;;5020700;28;20140;-70
2022/09/24 10:42:24;;;;;;;3.90;2.50;;;;;;;;;;5020206;28;20128;-69
2022/09/24 10:44:49;;;;;;;6.28;2.60;;;;;;;;;;5020648;28;20068;-72
2022/09/24 10:47:59;;;;;;;2.85;2.42;;;;;;;;;;5029102;28;20071;-72
2022/09/24 10:50:33;;;;;;;2.67;2.28;;;;;;;;;;5037198;28;20463;-72
2022/09/24 10:53:38;;;;;;;2.53;2.30;;;;;;;;;;5020268;28;20037;-73
2022/09/24 10:56:25;;;;;;;2.55;1.80;;;;;;;;;;5030524;28;20386;-71
2022/09/24 10:59:04;;;;;;;3.30;2.10;;;;;;;;;;5033846;28;20129;-73
2022/09/24 11:01:53;;;;;;;5.30;2.10;;;;;;;;;;5022836;28;20811;-69
2022/09/24 11:04:52;;;;;;;2.15;1.92;;;;;;;;;;5021415;28;20813;-73
2022/09/24 11:07:32;;;;;;;2.38;1.90;;;;;;;;;;5022111;28;20053;-71
2022/09/24 11:10:13;;;;;;;2.15;1.95;;;;;;;;;;5015379;28;20045;-68
2022/09/24 11:13:01;;;;;;;2.42;2.13;;;;;;;;;;5033589;28;20476;-72
2022/09/24 11:15:33;;;;;;;4.03;1.80;;;;;;;;;;5024259;28;20040;-73
2022/09/24 11:18:17;;;;;;;2.42;2.03;;;;;;;;;;5025186;28;20136;-74
2022/09/24 11:21:04;;;;;;;2.65;2.05;;;;;;;;;;5036688;28;20482;-69
2022/09/24 11:23:59;;;;;;;4.35;1.92;;;;;;;;;;5026735;28;20136;-70
2022/09/24 11:27:03;;;;;;;2.58;1.92;;;;;;;;;;5026672;28;20049;-73
2022/09/24 11:29:47;;;;;;;2.33;1.80;;;;;;;;;;5023863;28;20049;-71
2022/09/24 11:33:00;;;;;;;5.28;2.42;;;;;;;;;;5015640;28;20460;-71
2022/09/24 11:35:44;;;;;;;;;;;;;;;;;;5041770;28;20040;-69
2022/09/24 11:38:39;;;;;;;4.35;2.40;;;;;;;;;;5023865;28;19924;-70
2022/09/24 11:41:10;;;;;;;5.72;2.40;;;;;;;;;;5028197;28;20045;-72
2022/09/24 11:43:47;;;;;;;3.47;2.20;;;;;;;;;;5018661;28;20076;-70
2022/09/24 11:46:43;;;;;;;3.53;2.22;;;;;;;;;;5019199;28;21010;-73
2022/09/24 11:49:42;;;;;;;2.65;2.00;;;;;;;;;;5023882;28;20041;-69
2022/09/24 11:52:14;;;;;;;3.05;2.30;;;;;;;;;;5023614;28;20049;-70
2022/09/24 11:54:48;;;;;;;2.63;2.40;;;;;;;;;;5023851;28;20073;-69
2022/09/24 11:57:39;;;;;;;2.80;2.60;;;;;;;;;;5016983;28;20087;-70
2022/09/24 12:00:11;;;;;;;3.90;2.60;;;;;;;;;;5022929;28;20053;-72
2022/09/24 12:02:42;;;;;;;4.90;2.50;;;;;;;;;;5020232;28;20053;-72
2022/09/24 12:05:23;;;;;;;2.92;2.33;;;;;;;;;;5021385;28;20056;-72
2022/09/24 12:08:12;;;;;;;2.80;2.60;;;;;;;;;;5018615;28;20409;-73
2022/09/24 12:10:58;;;;;;;5.63;2.38;;;;;;;;;;5017866;28;20048;-74
2022/09/24 12:13:46;;;;;;;4.55;2.65;;;;;;;;;;5019022;28;20588;-72
2022/09/24 12:16:16;;;;;;;2.75;2.50;;;;;;;;;;5019045;28;20515;-70
2022/09/24 12:18:57;;;;;;;4.18;2.33;;;;;;;;;;5026574;28;20489;-71
2022/09/24 12:21:29;;;;;;;4.28;2.13;;;;;;;;;;5019786;28;20041;-69
2022/09/24 12:23:58;;;;;;;;;;;;;;;;;;5022268;28;20041;-72
2022/09/24 12:26:25;;;;;;;2.95;2.08;;;;;;;;;;5022042;28;20404;-72
2022/09/24 12:35:33;;;;;;;3.28;2.20;;;;;;;;;;5025642;28;20053;-70
2022/09/24 12:38:14;;;;;;;3.73;2.20;;;;;;;;;;5025213;28;20712;-72
2022/09/24 12:41:17;;;;;;;4.82;2.58;;;;;;;;;;5041531;28;20876;-69
2022/09/24 12:43:58;;;;;;;3.67;2.60;;;;;;;;;;5023932;28;20131;-73
2022/09/24 12:46:31;;;;;;;2.72;2.10;;;;;;;;;;5022959;28;20107;-70
2022/09/24 12:48:57;;;;;;;2.50;2.30;;;;;;;;;;5022386;28;20069;-69
2022/09/24 12:51:23;;;;;;;4.95;2.25;;;;;;;;;;5021961;28;20045;-72
2022/09/24 12:54:05;;;;;;;2.20;2.00;;;;;;;;;;5025043;28;20048;-73
2022/09/24 12:56:31;;;;;;;5.78;2.00;;;;;;;;;;5029904;28;20148;-72
2022/09/24 12:58:57;;;;;;;3.65;2.10;;;;;;;;;;5018997;28;20120;-70
2022/09/24 13:01:22;;;;;;;2.33;2.15;;;;;;;;;;5020503;28;20041;-73
2022/09/24 13:04:12;;;;;;;2.35;2.08;;;;;;;;;;5028688;28;20544;-71
2022/09/24 13:06:39;;;;;;;3.33;2.28;;;;;;;;;;5035505;28;20096;-71
2022/09/24 13:09:35;;;;;;;3.25;2.58;;;;;;;;;;5019098;28;20486;-71
2022/09/24 13:12:41;;;;;;;3.63;2.72;;;;;;;;;;5026925;28;20045;-73
2022/09/24 13:15:27;;;;;;;5.07;2.88;;;;;;;;;;5011018;28;20038;-70
2022/09/24 13:18:05;;;;;;;3.63;2.90;;;;;;;;;;5019786;28;20081;-72
2022/09/24 13:20:32;;;;;;;4.45;3.90;;;;;;;;;;5025562;28;20041;-72
2022/09/24 13:23:11;;;;;;;5.03;3.53;;;;;;;;;;5021077;28;20115;-72
2022/09/24 13:25:37;;;;;;;5.47;3.70;;;;;;;;;;5021335;28;20064;-69
2022/09/24 13:28:26;;;;;;;6.20;3.40;;;;;;;;;;5023503;28;20095;-70
2022/09/24 13:31:09;;;;;;;5.47;3.13;;;;;;;;;;5020653;28;20482;-70
2022/09/24 13:33:42;;;;;;;4.75;3.13;;;;;;;;;;5021628;28;20137;-73
2022/09/24 13:36:12;;;;;;;6.22;3.92;;;;;;;;;;5020784;28;20387;-70
2022/09/24 13:38:50;;;;;;;6.15;2.67;;;;;;;;;;5020802;28;20049;-70
2022/09/24 13:41:40;;;;;;;4.72;3.28;;;;;;;;;;5022471;28;20973;-72
2022/09/24 13:44:26;;;;;;;4.07;3.00;;;;;;;;;;5021165;28;20100;-70
2022/09/24 13:46:58;;;;;;;4.50;3.17;;;;;;;;;;5022210;28;20387;-70
2022/09/24 13:49:24;;;;;;;;;;;;;;;;;;5021993;28;20204;-69
2022/09/24 13:52:02;;;;;;;4.03;3.03;;;;;;;;;;5021623;28;20399;-71
2022/09/24 13:54:35;;;;;;;3.35;3.05;;;;;;;;;;5021997;28;20054;-71
2022/09/24 13:57:25;;;;;;;4.65;3.38;;;;;;;;;;5027232;28;20422;-71
2022/09/24 14:00:15;;;;;;;3.58;3.20;;;;;;;;;;5022084;28;20081;-71
2022/09/24 14:02:45;;;;;;;4.55;2.80;;;;;;;;;;5034188;28;20111;-71
2022/09/24 14:05:15;;;;;;;2.90;2.70;;;;;;;;;;5021917;28;20091;-70
2022/09/24 14:07:41;;;;;;;3.05;2.75;;;;;;;;;;5022005;28;20156;-71
2022/09/24 14:10:13;;;;;;;3.63;2.75;;;;;;;;;;5021729;28;20059;-69
2022/09/24 14:12:38;;;;;;;;;;;;;;;;;;5021652;28;20417;-71
2022/09/24 14:15:13;;;;;;;4.20;2.92;;;;;;;;;;5021634;28;19921;-70
2022/09/24 14:17:38;;;;;;;4.13;3.03;;;;;;;;;;5020820;28;20069;-72
2022/09/24 14:20:04;;;;;;;2.90;2.70;;;;;;;;;;5019362;28;20049;-70
2022/09/24 14:22:37;;;;;;;5.00;2.83;;;;;;;;;;5017773;28;20053;-71
2022/09/24 14:25:16;;;;;;;3.80;2.80;;;;;;;;;;5020879;28;20045;-71
2022/09/24 14:27:46;;;;;;;6.65;2.90;;;;;;;;;;5018042;28;20053;-71
2022/09/24 14:30:20;;;;;;;3.10;2.70;;;;;;;;;;5018303;28;20049;-70
2022/09/24 14:32:50;;;;;;;3.03;2.70;;;;;;;;;;5023173;28;20185;-71
2022/09/24 14:35:17;;;;;;;4.90;2.63;;;;;;;;;;5026111;28;20049;-71
2022/09/24 14:37:52;;;;;;;4.55;3.10;;;;;;;;;;5021472;28;20409;-71
2022/09/24 14:40:19;;;;;;;3.67;2.85;;;;;;;;;;5020397;28;20577;-70
2022/09/24 14:43:03;;;;;;;3.20;2.90;;;;;;;;;;5022512;28;20057;-71
2022/09/24 14:45:36;;;;;;;3.03;2.60;;;;;;;;;;5024117;28;20053;-70
2022/09/24 14:48:23;;;;;;;2.88;2.60;;;;;;;;;;5020383;28;20175;-70
2022/09/24 14:50:49;;;;;;;4.80;3.20;;;;;;;;;;5004223;28;20045;-72
2022/09/24 14:53:31;;;;;;;3.33;2.78;;;;;;;;;;5021156;28;20049;-70
2022/09/24 14:55:57;;;;;;;3.85;2.70;;;;;;;;;;5018720;28;20057;-70
2022/09/24 14:58:28;;;;;;;3.90;2.45;;;;;;;;;;5027279;28;20056;-71
2022/09/24 15:00:59;;;;;;;5.82;2.60;;;;;;;;;;5020964;28;20486;-70
2022/09/24 15:03:40;;;;;;;3.43;2.80;;;;;;;;;;5024187;28;20084;-71
2022/09/24 15:06:12;;;;;;;6.65;2.92;;;;;;;;;;5014362;28;20305;-70
2022/09/24 15:08:37;;;;;;;6.97;2.80;;;;;;;;;;5022930;28;20053;-70
2022/09/24 15:11:04;;;;;;;3.67;3.30;;;;;;;;;;5018327;28;20107;-70
2022/09/24 15:13:36;;;;;;;5.10;3.00;;;;;;;;;;5017576;28;20079;-72
2022/09/24 15:16:26;;;;;;;3.60;2.55;;;;;;;;;;5018358;28;20052;-74
2022/09/24 15:19:16;;;;;;;3.50;3.15;;;;;;;;;;5020674;28;20502;-69
2022/09/24 15:21:43;;;;;;;4.60;2.88;;;;;;;;;;5022359;28;20095;-70
2022/09/24 15:24:08;;;;;;;3.00;2.70;;;;;;;;;;5028087;28;20123;-70
2022/09/24 15:26:36;;;;;;;2.97;2.70;;;;;;;;;;5034473;28;20049;-69
2022/09/24 15:29:02;;;;;;;3.45;3.10;;;;;;;;;;5022520;28;20033;-69